createdAt,value
2022-10-06T00:01:09.409Z,1.73
2022-10-06T00:03:37.596Z,1.70
2022-10-06T00:06:05.412Z,1.52
2022-10-06T00:08:34.159Z,1.80
2022-10-06T00:11:01.300Z,1.95
2022-10-06T00:13:28.381Z,1.70
2022-10-06T00:15:55.367Z,1.75
2022-10-06T00:18:22.171Z,1.50
2022-10-06T00:23:46.391Z,1.77
2022-10-06T00:26:14.425Z,1.70
2022-10-06T00:28:41.177Z,1.45
2022-10-06T00:31:08.016Z,2.00
2022-10-06T00:33:34.827Z,1.90
2022-10-06T00:36:01.545Z,1.60
2022-10-06T00:38:29.105Z,1.30
2022-10-06T00:40:56.876Z,1.30
2022-10-06T00:43:55.452Z,1.40
2022-10-06T00:46:32.746Z,1.20
2022-10-06T00:49:12.805Z,1.00
2022-10-06T00:51:44.273Z,0.90
2022-10-06T00:54:11.966Z,0.73
2022-10-06T00:56:40.059Z,0.90
2022-10-06T00:59:15.067Z,0.70
2022-10-06T01:01:47.812Z,0.70
2022-10-06T01:04:16.479Z,0.70
2022-10-06T01:06:52.719Z,0.80
2022-10-06T01:09:21.223Z,0.60
2022-10-06T01:11:51.436Z,0.70
2022-10-06T01:14:19.486Z,0.60
2022-10-06T01:20:07.180Z,0.60
2022-10-06T01:22:36.055Z,0.60
2022-10-06T01:25:07.535Z,0.70
2022-10-06T01:27:36.863Z,0.60
2022-10-06T01:30:05.080Z,0.70
2022-10-06T01:35:23.750Z,0.80
2022-10-06T01:40:37.095Z,0.68
2022-10-06T01:43:03.881Z,0.70
2022-10-06T01:45:30.619Z,0.80
2022-10-06T01:47:57.987Z,0.70
2022-10-06T01:50:24.772Z,0.60
2022-10-06T01:52:51.496Z,0.70
2022-10-06T01:55:18.234Z,0.70
2022-10-06T01:57:45.012Z,0.60
2022-10-06T02:00:12.483Z,0.70
2022-10-06T02:02:39.378Z,0.70
2022-10-06T02:05:06.269Z,0.80
2022-10-06T02:07:34.617Z,0.70
2022-10-06T02:10:01.668Z,0.70
2022-10-06T02:12:28.381Z,0.90
2022-10-06T02:14:55.133Z,0.80
2022-10-06T02:17:21.852Z,0.80
2022-10-06T02:19:48.687Z,0.60
2022-10-06T02:22:15.416Z,0.70
2022-10-06T02:24:42.201Z,0.68
2022-10-06T02:27:08.966Z,0.82
2022-10-06T02:29:35.722Z,0.70
2022-10-06T02:32:02.541Z,0.60
2022-10-06T02:34:29.291Z,0.70
2022-10-06T02:39:42.754Z,0.70
2022-10-06T02:44:56.244Z,0.70
2022-10-06T02:49:49.829Z,0.70
2022-10-06T02:52:16.912Z,0.80
2022-10-06T02:57:30.644Z,0.70
2022-10-06T03:02:44.436Z,0.70
2022-10-06T03:05:11.328Z,0.80
2022-10-06T03:07:38.091Z,0.60
2022-10-06T03:10:05.120Z,0.80
2022-10-06T03:12:31.839Z,0.77
2022-10-06T03:14:58.563Z,0.75
2022-10-06T03:17:25.296Z,1.13
2022-10-06T03:19:52.037Z,1.77
2022-10-06T03:22:18.761Z,0.70
2022-10-06T03:24:45.503Z,0.70
2022-10-06T03:27:12.244Z,0.68
2022-10-06T03:32:25.615Z,0.88
2022-10-06T03:34:52.349Z,0.80
2022-10-06T03:37:19.210Z,0.80
2022-10-06T03:39:46.023Z,1.10
2022-10-06T03:42:12.750Z,1.10
2022-10-06T03:44:39.486Z,0.80
2022-10-06T03:47:06.337Z,0.93
2022-10-06T03:49:33.104Z,0.90
2022-10-06T03:51:59.840Z,0.80
2022-10-06T03:54:26.570Z,0.80
2022-10-06T03:56:53.944Z,1.10
2022-10-06T03:59:20.676Z,0.90
2022-10-06T04:01:48.978Z,0.80
2022-10-06T04:04:15.796Z,0.80
2022-10-06T04:06:43.996Z,1.10
2022-10-06T04:09:15.584Z,1.30
2022-10-06T04:11:44.484Z,0.95
2022-10-06T04:14:13.376Z,1.30
2022-10-06T04:16:48.490Z,0.98
2022-10-06T04:22:03.332Z,1.10
2022-10-06T04:27:16.745Z,1.40
2022-10-06T04:29:43.495Z,1.50
2022-10-06T04:32:10.215Z,1.92
2022-10-06T04:34:36.934Z,1.20
2022-10-06T04:37:03.676Z,1.20
2022-10-06T04:39:30.413Z,1.10
2022-10-06T04:41:57.115Z,1.30
2022-10-06T04:44:24.077Z,1.42
2022-10-06T04:46:50.900Z,1.30
2022-10-06T04:49:20.296Z,1.40
2022-10-06T04:51:50.513Z,1.60
2022-10-06T04:57:04.854Z,1.60
2022-10-06T05:02:18.622Z,1.60
2022-10-06T05:07:32.077Z,1.60
2022-10-06T05:12:45.428Z,1.40
2022-10-06T05:15:12.151Z,1.20
2022-10-06T05:17:38.916Z,1.50
2022-10-06T05:20:06.127Z,1.20
2022-10-06T05:22:33.361Z,1.45
2022-10-06T05:25:00.074Z,1.70
2022-10-06T05:27:26.818Z,2.17
2022-10-06T05:29:53.540Z,1.40
2022-10-06T05:32:20.290Z,1.50
2022-10-06T05:34:46.998Z,1.60
2022-10-06T05:37:13.703Z,1.60
2022-10-06T05:42:29.711Z,1.40
2022-10-06T05:44:56.693Z,1.83
2022-10-06T05:47:23.747Z,1.60
2022-10-06T05:49:50.536Z,1.50
2022-10-06T05:52:17.260Z,1.40
2022-10-06T05:54:44.051Z,1.50
2022-10-06T05:57:10.761Z,2.10
2022-10-06T05:59:37.507Z,1.67
2022-10-06T06:02:04.344Z,1.98
2022-10-06T06:04:31.141Z,2.00
2022-10-06T06:09:44.552Z,1.90
2022-10-06T06:14:57.894Z,1.85
2022-10-06T06:20:11.244Z,1.80
2022-10-06T06:22:37.972Z,1.80
2022-10-06T06:25:04.944Z,1.92
2022-10-06T06:27:31.671Z,1.90
2022-10-06T06:29:58.395Z,1.73
2022-10-06T06:32:25.122Z,1.80
2022-10-06T06:34:51.836Z,6.60
2022-10-06T06:37:18.600Z,2.13
2022-10-06T06:39:45.641Z,2.28
2022-10-06T06:42:12.343Z,1.92
2022-10-06T06:44:39.075Z,2.60
2022-10-06T06:49:52.403Z,1.80
2022-10-06T06:55:06.036Z,1.80
2022-10-06T07:00:19.487Z,4.35
2022-10-06T07:02:47.701Z,2.35
2022-10-06T07:05:14.542Z,2.90
2022-10-06T07:07:41.267Z,2.20
2022-10-06T07:10:08.218Z,2.40
2022-10-06T07:12:34.930Z,2.33
2022-10-06T07:15:01.642Z,2.00
2022-10-06T07:17:28.379Z,2.28
2022-10-06T07:22:41.759Z,2.60
2022-10-06T07:25:26.019Z,2.70
2022-10-06T07:27:54.149Z,3.63
2022-10-06T07:33:13.098Z,2.20
2022-10-06T07:38:26.652Z,2.00
2022-10-06T07:43:43.678Z,2.30
2022-10-06T07:46:13.755Z,2.17
2022-10-06T07:48:41.076Z,3.30
2022-10-06T07:51:16.240Z,2.40
2022-10-06T07:53:43.624Z,2.30
2022-10-06T07:56:10.439Z,2.20
2022-10-06T07:58:37.335Z,2.70
2022-10-06T08:01:09.587Z,2.10
2022-10-06T08:03:40.754Z,3.22
2022-10-06T08:06:07.891Z,3.17
2022-10-06T08:08:35.036Z,2.60
2022-10-06T08:11:02.071Z,2.20
2022-10-06T08:13:29.524Z,2.13
2022-10-06T08:15:56.368Z,2.03
2022-10-06T08:18:44.581Z,2.80
2022-10-06T08:21:14.590Z,2.60
2022-10-06T08:23:45.949Z,2.42
2022-10-06T08:26:14.327Z,2.50
2022-10-06T08:28:47.562Z,2.55
2022-10-06T08:31:15.623Z,2.50
2022-10-06T08:33:44.153Z,2.60
2022-10-06T08:36:13.755Z,2.60
2022-10-06T08:38:41.273Z,2.53
2022-10-06T08:41:19.942Z,2.22
2022-10-06T08:43:54.533Z,2.58
2022-10-06T08:46:25.011Z,2.83
2022-10-06T08:48:51.919Z,2.78
2022-10-06T08:51:39.176Z,2.85
2022-10-06T08:54:13.016Z,2.70
2022-10-06T08:57:01.557Z,2.80
2022-10-06T08:59:28.262Z,2.60
2022-10-06T09:01:55.121Z,2.63
2022-10-06T09:04:29.673Z,2.70
2022-10-06T09:07:11.373Z,2.80
2022-10-06T09:09:54.248Z,2.60
2022-10-06T09:12:39.534Z,2.80
2022-10-06T09:15:15.330Z,2.90
2022-10-06T09:17:50.311Z,2.78
2022-10-06T09:20:26.496Z,2.90
2022-10-06T09:22:56.667Z,2.50
2022-10-06T09:25:25.937Z,2.30
2022-10-06T09:27:58.091Z,2.42
2022-10-06T09:30:25.373Z,3.30
2022-10-06T09:32:58.113Z,2.60
2022-10-06T09:35:26.686Z,2.60
2022-10-06T09:38:07.081Z,2.10
2022-10-06T09:40:49.926Z,2.53
2022-10-06T09:43:26.484Z,2.70
2022-10-06T09:45:54.198Z,2.50
2022-10-06T09:48:24.827Z,2.17
2022-10-06T09:51:15.617Z,2.45
2022-10-06T09:53:43.941Z,2.20
2022-10-06T09:56:17.643Z,2.03
2022-10-06T09:58:58.533Z,2.70
2022-10-06T10:01:30.289Z,3.45
2022-10-06T10:04:19.428Z,2.97
2022-10-06T10:06:46.548Z,2.63
2022-10-06T10:09:29.814Z,3.40
2022-10-06T10:12:12.152Z,2.40
2022-10-06T10:14:39.061Z,3.47
2022-10-06T10:17:18.424Z,3.00
2022-10-06T10:19:49.119Z,3.83
2022-10-06T10:22:27.352Z,2.40
2022-10-06T10:25:14.607Z,2.70
2022-10-06T10:28:13.403Z,2.90
2022-10-06T10:31:00.218Z,2.30
2022-10-06T10:33:49.690Z,2.67
2022-10-06T10:36:39.999Z,2.25
2022-10-06T10:39:13.040Z,2.10
2022-10-06T10:41:49.218Z,2.40
2022-10-06T10:44:24.462Z,2.40
2022-10-06T10:46:58.544Z,2.50
2022-10-06T10:49:29.310Z,2.40
2022-10-06T10:52:02.597Z,2.70
2022-10-06T10:54:52.113Z,2.80
2022-10-06T10:57:24.331Z,2.55
2022-10-06T11:00:00.605Z,2.60
2022-10-06T11:02:28.006Z,2.30
2022-10-06T11:05:01.691Z,1.90
2022-10-06T11:07:31.422Z,1.80
2022-10-06T11:10:07.460Z,2.42
2022-10-06T11:13:21.826Z,2.15
2022-10-06T11:15:56.367Z,2.50
2022-10-06T11:18:56.995Z,2.10
2022-10-06T11:21:25.179Z,2.08
2022-10-06T11:24:13.343Z,2.47
2022-10-06T11:26:45.401Z,2.20
2022-10-06T11:29:42.430Z,2.10
2022-10-06T11:32:17.944Z,2.35
2022-10-06T11:34:48.870Z,1.90
2022-10-06T11:37:23.265Z,2.20
2022-10-06T11:40:05.283Z,2.70
2022-10-06T11:42:41.057Z,2.15
2022-10-06T11:45:15.466Z,2.10
2022-10-06T11:48:04.117Z,2.00
2022-10-06T11:50:39.217Z,2.23
2022-10-06T11:53:23.234Z,1.88
2022-10-06T11:56:15.476Z,2.22
2022-10-06T11:58:51.281Z,2.05
2022-10-06T12:01:32.678Z,1.85
2022-10-06T12:04:20.637Z,2.70
2022-10-06T12:06:57.787Z,2.13
2022-10-06T12:09:30.494Z,2.28
2022-10-06T12:12:06.733Z,2.13
2022-10-06T12:18:01.285Z,2.20
2022-10-06T12:20:50.987Z,2.15
2022-10-06T12:23:40.668Z,3.30
2022-10-06T12:26:07.353Z,2.75
2022-10-06T12:29:17.374Z,3.80
2022-10-06T12:32:02.764Z,2.53
2022-10-06T12:34:57.367Z,3.23
2022-10-06T12:37:33.260Z,2.33
2022-10-06T12:40:37.826Z,2.17
2022-10-06T12:43:13.518Z,1.85
2022-10-06T12:46:03.255Z,2.38
2022-10-06T12:48:37.712Z,2.08
2022-10-06T12:51:13.230Z,2.42
2022-10-06T12:54:13.934Z,2.10
2022-10-06T12:56:43.054Z,2.10
2022-10-06T12:59:18.648Z,2.42
2022-10-06T13:01:45.485Z,2.10
2022-10-06T13:04:32.179Z,2.30
2022-10-06T13:06:58.964Z,2.17
2022-10-06T13:09:25.695Z,2.20
2022-10-06T13:11:52.437Z,4.00
2022-10-06T13:14:19.167Z,2.80
2022-10-06T13:16:48.197Z,2.30
2022-10-06T13:19:18.595Z,2.50
2022-10-06T13:21:46.464Z,2.13
2022-10-06T13:24:17.166Z,1.85
2022-10-06T13:26:44.898Z,2.00
2022-10-06T13:29:23.405Z,2.10
2022-10-06T13:31:55.048Z,1.80
2022-10-06T13:34:33.932Z,1.60
2022-10-06T13:37:01.672Z,1.90
2022-10-06T13:39:29.572Z,2.13
2022-10-06T13:42:08.652Z,2.50
2022-10-06T13:45:00.149Z,3.10
2022-10-06T13:47:29.002Z,2.90
2022-10-06T13:50:01.950Z,2.72
2022-10-06T13:52:34.914Z,2.40
2022-10-06T13:55:03.144Z,2.38
2022-10-06T13:57:44.902Z,1.60
2022-10-06T14:00:14.800Z,2.07
2022-10-06T14:02:43.454Z,1.80
2022-10-06T14:05:23.742Z,1.60
2022-10-06T14:07:51.231Z,2.20
2022-10-06T14:10:21.232Z,2.08
2022-10-06T14:12:49.054Z,1.90
2022-10-06T14:15:21.855Z,2.03
2022-10-06T14:18:03.077Z,1.60
2022-10-06T14:20:38.821Z,1.80
2022-10-06T14:23:43.015Z,1.80
2022-10-06T14:26:11.848Z,1.70
2022-10-06T14:28:49.976Z,1.90
2022-10-06T14:31:17.165Z,2.20
2022-10-06T14:33:45.380Z,2.05
2022-10-06T14:36:27.068Z,1.90
2022-10-06T14:38:55.567Z,2.00
2022-10-06T14:41:24.312Z,2.00
2022-10-06T14:43:58.447Z,2.25
2022-10-06T14:46:25.824Z,2.00
2022-10-06T14:48:52.645Z,1.88
2022-10-06T14:51:20.388Z,2.30
2022-10-06T14:53:55.178Z,2.40
2022-10-06T14:56:23.935Z,1.90
2022-10-06T14:58:51.349Z,2.10
2022-10-06T15:01:20.941Z,2.15
2022-10-06T15:03:56.530Z,2.70
2022-10-06T15:06:23.903Z,2.10
2022-10-06T15:08:54.910Z,1.80
2022-10-06T15:11:23.302Z,2.50
2022-10-06T15:13:50.305Z,2.33
2022-10-06T15:16:18.056Z,2.10
2022-10-06T15:18:44.853Z,2.47
2022-10-06T15:21:11.885Z,1.90
2022-10-06T15:23:38.891Z,1.90
2022-10-06T15:26:06.166Z,1.58
2022-10-06T15:28:33.985Z,1.90
2022-10-06T15:31:00.801Z,1.80
2022-10-06T15:33:28.256Z,1.80
2022-10-06T15:36:21.557Z,1.70
2022-10-06T15:38:48.335Z,2.00
2022-10-06T15:41:15.477Z,2.00
2022-10-06T15:43:42.263Z,2.00
2022-10-06T15:46:09.035Z,2.10
2022-10-06T15:48:35.785Z,2.20
2022-10-06T15:51:02.483Z,2.55
2022-10-06T15:53:29.233Z,1.80
2022-10-06T15:55:55.960Z,2.10
2022-10-06T15:58:22.689Z,4.13
2022-10-06T16:00:49.456Z,1.92
2022-10-06T16:03:16.149Z,2.10
2022-10-06T16:05:42.872Z,2.50
2022-10-06T16:08:09.596Z,2.17
2022-10-06T16:10:36.430Z,2.42
2022-10-06T16:13:03.146Z,4.00
2022-10-06T16:15:29.916Z,2.60
2022-10-06T16:17:56.659Z,2.20
2022-10-06T16:20:23.422Z,1.85
2022-10-06T16:22:50.206Z,2.03
2022-10-06T16:25:16.932Z,2.28
2022-10-06T16:27:43.650Z,1.90
2022-10-06T16:30:10.649Z,1.90
2022-10-06T16:32:37.672Z,1.63
2022-10-06T16:35:04.988Z,1.98
2022-10-06T16:37:31.720Z,2.00
2022-10-06T16:39:58.462Z,2.38
2022-10-06T16:42:25.199Z,2.45
2022-10-06T16:44:51.920Z,3.50
2022-10-06T16:47:18.630Z,2.10
2022-10-06T16:49:45.404Z,1.60
2022-10-06T16:52:12.142Z,1.83
2022-10-06T16:54:38.848Z,1.80
2022-10-06T16:57:05.607Z,1.70
2022-10-06T16:59:32.432Z,2.25
2022-10-06T17:01:59.142Z,3.40
2022-10-06T17:04:26.394Z,2.17
2022-10-06T17:06:55.461Z,2.20
2022-10-06T17:09:24.180Z,1.80
2022-10-06T17:11:53.648Z,2.15
2022-10-06T17:14:20.856Z,1.63
2022-10-06T17:16:49.428Z,1.70
2022-10-06T17:19:17.464Z,1.83
2022-10-06T17:21:46.797Z,2.10
2022-10-06T17:24:14.498Z,1.80
2022-10-06T17:26:42.748Z,2.33
2022-10-06T17:29:15.215Z,1.90
2022-10-06T17:31:43.622Z,1.80
2022-10-06T17:34:15.947Z,2.70
2022-10-06T17:36:48.001Z,2.00
2022-10-06T17:39:16.728Z,2.28
2022-10-06T17:41:44.442Z,2.40
2022-10-06T17:44:13.370Z,2.08
2022-10-06T17:46:41.916Z,2.30
2022-10-06T17:49:10.499Z,2.03
2022-10-06T17:51:40.279Z,2.17
2022-10-06T17:54:09.055Z,2.15
2022-10-06T17:56:35.778Z,2.40
2022-10-06T17:59:05.415Z,1.80
2022-10-06T18:01:33.795Z,3.05
2022-10-06T18:04:02.465Z,2.10
2022-10-06T18:06:31.266Z,4.07
2022-10-06T18:09:00.097Z,2.00
2022-10-06T18:11:28.326Z,2.00
2022-10-06T18:13:55.516Z,1.70
2022-10-06T18:16:24.747Z,2.20
2022-10-06T18:18:55.932Z,2.15
2022-10-06T18:21:25.388Z,2.00
2022-10-06T18:23:52.428Z,2.28
2022-10-06T18:26:20.986Z,1.70
2022-10-06T18:28:49.388Z,1.98
2022-10-06T18:31:18.246Z,1.80
2022-10-06T18:36:33.678Z,1.83
2022-10-06T18:39:00.397Z,1.95
2022-10-06T18:41:28.200Z,1.70
2022-10-06T18:43:55.773Z,2.00
2022-10-06T18:46:23.053Z,1.80
2022-10-06T18:49:50.003Z,2.13
2022-10-06T18:52:16.759Z,2.10
2022-10-06T18:54:43.453Z,2.10
2022-10-06T18:57:10.226Z,1.83
2022-10-06T18:59:37.076Z,2.25
2022-10-06T19:02:06.799Z,1.90
2022-10-06T19:04:35.085Z,2.00
2022-10-06T19:07:02.212Z,2.20
2022-10-06T19:09:28.916Z,5.60
2022-10-06T19:11:56.770Z,4.88
2022-10-06T19:14:27.664Z,2.65
2022-10-06T19:19:47.143Z,5.80
2022-10-06T19:22:14.509Z,2.50
2022-10-06T19:24:45.384Z,1.90
2022-10-06T19:27:20.141Z,1.90
2022-10-06T19:29:54.679Z,2.08
2022-10-06T19:32:27.438Z,2.10
2022-10-06T19:37:20.943Z,2.20
2022-10-06T19:39:48.072Z,2.10
2022-10-06T19:45:05.365Z,2.20
2022-10-06T19:50:19.013Z,2.00
2022-10-06T19:52:45.788Z,2.30
2022-10-06T19:55:12.717Z,1.90
2022-10-06T19:57:39.444Z,2.33
2022-10-06T20:00:07.446Z,2.30
2022-10-06T20:02:37.399Z,1.80
2022-10-06T20:05:07.062Z,2.10
2022-10-06T20:07:33.798Z,2.00
2022-10-06T20:10:00.529Z,2.10
2022-10-06T20:12:27.209Z,2.53
2022-10-06T20:14:53.985Z,2.20
2022-10-06T20:17:21.263Z,2.40
2022-10-06T20:19:48.211Z,2.30
2022-10-06T20:22:15.022Z,2.53
2022-10-06T20:24:41.808Z,2.30
2022-10-06T20:27:08.529Z,2.10
2022-10-06T20:29:35.230Z,2.40
2022-10-06T20:32:01.972Z,2.20
2022-10-06T20:34:30.020Z,2.30
2022-10-06T20:36:56.821Z,2.20
2022-10-06T20:39:24.003Z,2.53
2022-10-06T20:41:51.334Z,2.70
2022-10-06T20:44:18.051Z,2.90
2022-10-06T20:46:44.769Z,2.60
2022-10-06T20:49:13.394Z,2.22
2022-10-06T20:51:41.555Z,2.00
2022-10-06T20:54:08.337Z,2.50
2022-10-06T20:56:35.463Z,2.05
2022-10-06T20:59:02.763Z,2.20
2022-10-06T21:04:16.263Z,1.95
2022-10-06T21:09:15.441Z,2.40
2022-10-06T21:11:42.328Z,2.38
2022-10-06T21:14:09.288Z,2.22
2022-10-06T21:16:36.821Z,1.90
2022-10-06T21:19:05.232Z,2.10
2022-10-06T21:24:19.238Z,2.50
2022-10-06T21:26:46.615Z,2.10
2022-10-06T21:29:13.829Z,2.28
2022-10-06T21:31:41.202Z,1.80
2022-10-06T21:34:07.984Z,2.20
2022-10-06T21:36:34.874Z,2.20
2022-10-06T21:39:02.098Z,2.00
2022-10-06T21:44:08.954Z,0
2022-10-06T21:44:19.254Z,1.92
2022-10-06T21:46:50.170Z,2.40
2022-10-06T21:49:20.041Z,2.20
2022-10-06T21:54:35.790Z,2.20
2022-10-06T21:57:02.550Z,2.30
2022-10-06T21:59:29.336Z,2.50
2022-10-06T22:01:56.204Z,2.40
2022-10-06T22:04:23.002Z,2.20
2022-10-06T22:06:49.751Z,2.33
2022-10-06T22:09:18.378Z,2.60
2022-10-06T22:11:46.224Z,2.30
2022-10-06T22:14:15.617Z,2.30
2022-10-06T22:16:43.106Z,2.20
2022-10-06T22:21:58.703Z,2.58
2022-10-06T22:24:25.511Z,2.40
2022-10-06T22:26:52.533Z,2.30
2022-10-06T22:29:20.681Z,1.90
2022-10-06T22:31:48.391Z,2.00
2022-10-06T22:34:19.528Z,2.53
2022-10-06T22:36:46.855Z,2.40
2022-10-06T22:42:00.295Z,3.55
2022-10-06T22:44:27.027Z,4.30
2022-10-06T22:46:53.868Z,2.83
2022-10-06T22:49:20.693Z,2.93
2022-10-06T22:51:47.732Z,2.38
2022-10-06T22:54:19.012Z,3.20
2022-10-06T22:56:46.084Z,2.70
2022-10-06T22:59:12.868Z,2.30
2022-10-06T23:01:39.853Z,2.60
2022-10-06T23:04:06.617Z,2.47
2022-10-06T23:06:33.395Z,2.58
2022-10-06T23:09:00.204Z,2.40
2022-10-06T23:11:27.060Z,2.20
2022-10-06T23:13:53.820Z,2.60
2022-10-06T23:16:21.388Z,2.53
2022-10-06T23:18:48.796Z,2.60
2022-10-06T23:21:18.205Z,2.60
2022-10-06T23:23:46.112Z,2.55
2022-10-06T23:26:15.610Z,2.42
2022-10-06T23:28:42.608Z,2.70
2022-10-06T23:31:10.953Z,2.80
2022-10-06T23:33:38.299Z,2.70
2022-10-06T23:36:08.034Z,2.30
2022-10-06T23:38:35.443Z,2.50
2022-10-06T23:41:02.632Z,2.30
2022-10-06T23:43:29.426Z,2.50
2022-10-06T23:45:56.526Z,2.50
2022-10-06T23:48:24.010Z,2.25
2022-10-06T23:50:59.097Z,2.17
2022-10-06T23:53:26.377Z,2.47
2022-10-06T23:55:53.160Z,3.00
2022-10-06T23:58:20.742Z,2.88
